Time;durP1;ratioP1;P1;durP2;ratioP2;P2;SDS_P1;SDS_P2;PMS_P1;PMS_P2;Temp;Humidity;BMP_temperature;BMP_pressure;BME280_temperature;BME280_humidity;BME280_pressure;Samples;Min_cycle;Max_cycle;Signal;HPM_P1;HPM_P2
2023/05/28 00:02:06;;;;;;;10.60;6.97;;;;;;;-141.97;100.00;47828.53;4992563;28;20171;-84
2023/05/28 00:04:32;;;;;;;8.67;7.20;;;;;;;-141.97;100.00;47672.84;4993059;28;20242;-85
2023/05/28 00:06:57;;;;;;;11.13;7.77;;;;;;;-141.97;100.00;47636.31;4992943;28;20168;-85
2023/05/28 00:09:23;;;;;;;14.40;8.13;;;;;;;-141.97;100.00;47649.78;4992962;28;20577;-85
2023/05/28 00:11:48;;;;;;;10.40;8.17;;;;;;;-141.97;100.00;47699.75;4992896;28;20190;-84
2023/05/28 00:14:14;;;;;;;11.30;7.53;;;;;;;-141.97;100.00;47634.41;4992994;28;20175;-85
2023/05/28 00:16:40;;;;;;;10.47;7.83;;;;;;;-141.97;100.00;47634.41;4993332;28;20690;-85
2023/05/28 00:19:06;;;;;;;11.80;7.70;;;;;;;-141.97;100.00;47669.00;4992962;28;20148;-84
2023/05/28 00:21:36;;;;;;;9.20;7.30;;;;;;;-141.97;100.00;47665.16;4992709;28;20175;-84
2023/05/28 00:24:01;;;;;;;12.17;7.37;;;;;;;-141.97;100.00;47619.03;4995995;28;20192;-84
2023/05/28 00:26:26;;;;;;;12.03;7.60;;;;;;;-141.97;100.00;47684.38;4995084;28;20242;-84
2023/05/28 00:28:52;;;;;;;13.10;7.23;;;;;;;-141.97;100.00;47688.22;4995439;28;20281;-83
2023/05/28 00:31:18;;;;;;;13.00;7.57;;;;;;;-141.97;100.00;47619.03;4996596;28;20546;-84
2023/05/28 00:33:43;;;;;;;10.57;7.67;;;;;;;-141.97;100.00;47599.81;4996309;28;20195;-84
2023/05/28 00:36:10;;;;;;;12.33;7.07;;;;;;;-141.97;100.00;47797.78;4996207;28;20237;-84
2023/05/28 00:38:36;;;;;;;10.37;7.20;;;;;;;-141.97;100.00;47684.38;4996122;28;20183;-84
2023/05/28 00:41:01;;;;;;;11.93;6.83;;;;;;;-141.97;100.00;47699.75;4978400;28;20576;-83
2023/05/28 00:43:27;;;;;;;11.10;7.10;;;;;;;-141.97;100.00;47576.75;4996365;28;20174;-84
2023/05/28 00:45:56;;;;;;;10.20;7.10;;;;;;;-141.97;100.00;47695.91;4995810;28;20167;-84
2023/05/28 00:48:22;;;;;;;10.73;6.90;;;;;;;-141.97;100.00;47678.63;4995444;28;20198;-84
2023/05/28 00:50:48;;;;;;;10.77;7.23;;;;;;;-141.97;100.00;47609.41;4995714;28;20221;-84
2023/05/28 00:53:15;;;;;;;8.27;6.90;;;;;;;-141.97;100.00;47688.22;4978608;28;20175;-84
2023/05/28 00:55:40;;;;;;;8.97;6.57;;;;;;;-141.97;100.00;47684.38;4995560;28;20272;-84
2023/05/28 00:58:07;;;;;;;9.20;6.87;;;;;;;-141.97;100.00;47667.06;4995815;28;20194;-84
2023/05/28 01:00:39;;;;;;;13.07;6.60;;;;;;;-141.97;100.00;47813.16;4995565;28;20167;-84
2023/05/28 01:03:05;;;;;;;8.20;6.60;;;;;;;-141.97;100.00;47651.69;4978254;28;20175;-85
2023/05/28 01:05:34;;;;;;;9.60;6.73;;;;;;;-141.97;100.00;47665.16;4995721;28;20166;-85
2023/05/28 01:08:02;;;;;;;8.87;6.33;;;;;;;-141.97;100.00;47576.75;4995467;28;20218;-85
2023/05/28 01:10:28;;;;;;;9.37;6.40;;;;;;;-141.97;100.00;47647.84;4995815;28;20163;-85
2023/05/28 01:12:54;;;;;;;10.10;6.50;;;;;;;-141.97;100.00;47642.09;4995449;28;20174;-84
2023/05/28 01:15:19;;;;;;;10.50;6.73;;;;;;;-141.97;100.00;47607.50;4995704;28;20171;-84
2023/05/28 01:17:47;;;;;;;9.20;6.90;;;;;;;-141.97;100.00;47626.72;4995573;28;20696;-85
2023/05/28 01:20:13;;;;;;;11.70;6.40;;;;;;;-141.97;100.00;47611.34;4995364;28;20163;-84
2023/05/28 01:22:45;;;;;;;11.17;6.17;;;;;;;-141.97;100.00;47828.53;4995539;28;20171;-84
2023/05/28 01:25:12;;;;;;;10.83;6.83;;;;;;;-141.97;100.00;47653.63;4995554;28;20164;-84
2023/05/28 01:27:41;;;;;;;9.87;6.57;;;;;;;-141.97;100.00;47667.06;4995289;28;20679;-85
2023/05/28 01:30:12;;;;;;;10.00;6.20;;;;;;;-141.97;100.00;47699.75;4977609;28;20237;-84
2023/05/28 01:32:41;;;;;;;7.47;5.73;;;;;;;-141.97;100.00;47868.91;4977543;28;20178;-84
2023/05/28 01:35:08;;;;;;;11.83;5.90;;;;;;;-141.97;100.00;47630.56;4977215;28;20172;-84
2023/05/28 01:37:37;;;;;;;8.30;5.70;;;;;;;-141.97;100.00;47634.41;5001582;28;20243;-84
2023/05/28 01:40:03;;;;;;;8.20;5.47;;;;;;;-141.97;100.00;47676.69;5003297;28;20581;-84
2023/05/28 01:42:34;;;;;;;9.27;5.83;;;;;;;-141.97;100.00;47695.91;4980785;28;20234;-84
2023/05/28 01:45:00;;;;;;;9.27;6.03;;;;;;;-141.97;100.00;47676.69;4996254;28;20167;-84
2023/05/28 01:47:26;;;;;;;10.67;5.80;;;;;;;-141.97;100.00;47655.53;4995625;28;20624;-84
2023/05/28 01:49:52;;;;;;;7.93;5.90;;;;;;;-141.97;100.00;47651.69;4995124;28;20535;-84
2023/05/28 01:52:18;;;;;;;7.63;5.67;;;;;;;-141.97;100.00;47665.16;4995395;28;20163;-84
2023/05/28 01:54:43;;;;;;;8.37;5.73;;;;;;;-141.97;100.00;47665.16;4995302;28;20182;-84
2023/05/28 01:57:10;;;;;;;8.63;5.97;;;;;;;-141.97;100.00;47690.16;4994890;28;20177;-84
2023/05/28 01:59:35;;;;;;;7.90;5.87;;;;;;;-141.97;100.00;47592.13;4994431;28;20163;-84
2023/05/28 02:02:01;;;;;;;7.80;5.60;;;;;;;-141.97;100.00;47665.16;4993918;28;20222;-84
2023/05/28 02:04:26;;;;;;;9.67;5.77;;;;;;;-141.97;100.00;47636.31;4994010;28;20159;-83
2023/05/28 02:06:52;;;;;;;8.07;5.90;;;;;;;-141.97;100.00;47669.00;4977691;28;20198;-85
2023/05/28 02:09:17;;;;;;;7.77;6.00;;;;;;;-141.97;100.00;47626.72;4995199;28;20679;-85
2023/05/28 02:11:42;;;;;;;8.07;5.87;;;;;;;-141.97;100.00;47642.09;4995232;28;20194;-84
2023/05/28 02:14:13;;;;;;;8.57;6.10;;;;;;;-141.97;100.00;47670.91;4994108;28;20179;-85
2023/05/28 02:16:40;;;;;;;8.13;5.90;;;;;;;-141.97;100.00;47667.06;4994085;28;20167;-84
2023/05/28 02:19:06;;;;;;;7.87;5.60;;;;;;;-141.97;100.00;47628.63;4995189;28;20167;-84
2023/05/28 02:21:31;;;;;;;8.27;5.87;;;;;;;-141.97;100.00;47674.78;4994707;28;20262;-85
2023/05/28 02:23:57;;;;;;;8.13;5.83;;;;;;;-141.97;100.00;47672.84;4993692;28;20160;-84
2023/05/28 02:26:22;;;;;;;8.83;5.53;;;;;;;-141.97;100.00;47649.78;4976601;28;20538;-84
2023/05/28 02:28:47;;;;;;;8.00;5.63;;;;;;;-141.97;100.00;47584.44;4976655;28;20191;-84
2023/05/28 02:31:13;;;;;;;8.07;5.83;;;;;;;-141.97;100.00;47801.63;4994563;28;20164;-84
2023/05/28 02:33:41;;;;;;;8.90;6.07;;;;;;;-141.97;100.00;47665.16;4993272;28;20254;-83
2023/05/28 02:36:08;;;;;;;8.27;6.20;;;;;;;-141.97;100.00;47674.78;5002024;28;20609;-84
2023/05/28 02:38:34;;;;;;;8.03;5.90;;;;;;;-141.97;100.00;47657.47;4997481;28;20159;-84
2023/05/28 02:41:00;;;;;;;7.97;6.17;;;;;;;-141.97;100.00;47663.22;4977472;28;20282;-83
2023/05/28 02:43:25;;;;;;;7.23;5.77;;;;;;;-141.97;100.00;47651.69;4993359;28;20565;-83
2023/05/28 02:45:51;;;;;;;7.73;6.10;;;;;;;-141.97;100.00;47684.38;4993969;28;20553;-84
2023/05/28 02:48:16;;;;;;;9.07;6.17;;;;;;;-141.97;100.00;47657.47;4994223;28;20198;-85
2023/05/28 02:50:41;;;;;;;9.70;6.30;;;;;;;-141.97;100.00;47582.50;4993814;28;20191;-84
2023/05/28 02:53:07;;;;;;;7.73;6.37;;;;;;;-141.97;100.00;47703.59;4976297;28;20616;-83
2023/05/28 02:55:32;;;;;;;8.17;6.00;;;;;;;-141.97;100.00;47657.47;4994265;28;20168;-84
2023/05/28 02:57:58;;;;;;;7.40;6.17;;;;;;;-141.97;100.00;47845.84;4993839;28;20171;-85
2023/05/28 03:00:23;;;;;;;8.23;6.33;;;;;;;-141.97;100.00;47669.00;4993205;28;20187;-84
2023/05/28 03:02:49;;;;;;;11.20;6.37;;;;;;;-141.97;100.00;47667.06;4993884;28;20198;-83
2023/05/28 03:05:14;;;;;;;10.57;6.20;;;;;;;-141.97;100.00;47617.09;4976813;28;20171;-85
2023/05/28 03:07:40;;;;;;;8.60;6.57;;;;;;;-141.97;100.00;47699.75;4993617;28;20231;-84
2023/05/28 03:10:06;;;;;;;8.93;6.80;;;;;;;-141.97;100.00;47688.22;4976195;28;20171;-84
2023/05/28 03:12:31;;;;;;;9.37;6.87;;;;;;;-141.97;100.00;47651.69;4993728;28;20537;-83
2023/05/28 03:14:57;;;;;;;9.90;6.47;;;;;;;-141.97;100.00;47649.78;4993786;28;20155;-84
2023/05/28 03:17:22;;;;;;;10.30;6.83;;;;;;;-141.97;100.00;47680.53;4993545;28;20249;-85
2023/05/28 03:19:48;;;;;;;8.47;6.83;;;;;;;-141.97;100.00;47651.69;4975933;28;20171;-85
2023/05/28 03:22:13;;;;;;;10.43;7.57;;;;;;;-141.97;100.00;47574.81;4993887;28;20167;-84
2023/05/28 03:24:39;;;;;;;9.87;7.20;;;;;;;-141.97;100.00;47607.50;4992956;28;20206;-85
2023/05/28 03:27:07;;;;;;;11.27;7.50;;;;;;;-141.97;100.00;47630.56;4993262;28;20163;-84
2023/05/28 03:29:33;;;;;;;9.83;7.23;;;;;;;-141.97;100.00;47626.72;4975746;28;20750;-84
2023/05/28 03:31:58;;;;;;;10.00;8.00;;;;;;;-141.97;100.00;47620.94;4976525;28;20179;-84
2023/05/28 03:34:23;;;;;;;12.67;7.97;;;;;;;-141.97;100.00;47663.22;4994619;28;20237;-84
2023/05/28 03:36:50;;;;;;;12.70;8.40;;;;;;;-141.97;100.00;47659.38;4994105;28;20203;-84
2023/05/28 03:39:16;;;;;;;10.63;7.90;;;;;;;-141.97;100.00;47634.41;4977181;28;20164;-85
2023/05/28 03:41:41;;;;;;;9.13;7.60;;;;;;;-141.97;100.00;47676.69;4993886;28;20218;-84
2023/05/28 03:44:06;;;;;;;12.00;8.17;;;;;;;-141.97;100.00;47670.91;4993819;28;20659;-84
2023/05/28 03:46:32;;;;;;;14.50;8.80;;;;;;;-141.97;100.00;47661.31;4993954;28;20250;-85
2023/05/28 03:48:57;;;;;;;11.57;8.67;;;;;;;-141.97;100.00;47659.38;4993206;28;20191;-84
2023/05/28 03:51:23;;;;;;;14.27;8.50;;;;;;;-141.97;100.00;47692.06;4993509;28;20191;-85
2023/05/28 03:53:49;;;;;;;11.73;8.30;;;;;;;-141.97;100.00;47672.84;4993238;28;20207;-83
2023/05/28 03:56:16;;;;;;;11.53;8.10;;;;;;;-141.97;100.00;47717.06;4990282;28;20179;-84
2023/05/28 03:58:41;;;;;;;11.57;7.73;;;;;;;-141.97;100.00;47690.16;4977041;28;20168;-85
2023/05/28 04:01:07;;;;;;;13.60;8.13;;;;;;;-141.97;100.00;47680.53;4978213;28;20237;-84
2023/05/28 04:03:33;;;;;;;11.07;8.07;;;;;;;-141.97;100.00;47876.59;4977913;28;20256;-85
2023/05/28 04:05:59;;;;;;;11.83;8.30;;;;;;;-141.97;100.00;47644.00;4978349;28;20652;-84
2023/05/28 04:08:24;;;;;;;13.30;8.27;;;;;;;-141.97;100.00;47640.16;4977242;28;20195;-85
2023/05/28 04:10:50;;;;;;;12.60;8.50;;;;;;;-141.97;100.00;47861.22;4978272;28;20172;-84
2023/05/28 04:13:16;;;;;;;12.27;8.77;;;;;;;-141.97;100.00;47853.53;4992984;28;20226;-84
2023/05/28 04:15:41;;;;;;;15.33;9.50;;;;;;;-141.97;100.00;47659.38;4977976;28;20172;-83
2023/05/28 04:18:06;;;;;;;12.90;9.03;;;;;;;-141.97;100.00;47692.06;4977679;28;20528;-84
2023/05/28 04:20:32;;;;;;;11.43;8.33;;;;;;;-141.97;100.00;47626.72;4976976;28;20165;-84
2023/05/28 04:22:58;;;;;;;12.50;9.10;;;;;;;-141.97;100.00;47699.75;4978251;28;20259;-85
2023/05/28 04:25:24;;;;;;;13.87;9.60;;;;;;;-141.97;100.00;47724.75;4978422;28;20231;-85
2023/05/28 04:27:49;;;;;;;13.63;9.23;;;;;;;-141.97;100.00;47795.88;4977576;28;20198;-83
2023/05/28 04:30:15;;;;;;;14.07;9.93;;;;;;;-141.97;100.00;47688.22;4977753;28;20168;-85
2023/05/28 04:32:40;;;;;;;14.57;9.60;;;;;;;-141.97;100.00;47688.22;4977620;28;20625;-84
2023/05/28 04:35:08;;;;;;;14.30;9.70;;;;;;;-141.97;100.00;47703.59;4977344;28;20223;-84
2023/05/28 04:37:36;;;;;;;12.77;9.27;;;;;;;-141.97;100.00;47694.00;4977307;28;20228;-83
2023/05/28 04:40:03;;;;;;;13.10;9.07;;;;;;;-141.97;100.00;47695.91;4976809;28;20643;-84
2023/05/28 04:42:29;;;;;;;14.83;9.60;;;;;;;-141.97;100.00;47699.75;4989409;28;20289;-84
2023/05/28 04:44:55;;;;;;;12.20;9.80;;;;;;;-141.97;100.00;47686.31;4978841;28;20168;-84
2023/05/28 04:47:21;;;;;;;14.03;9.63;;;;;;;-141.97;100.00;47705.53;4978297;28;20526;-85
2023/05/28 04:49:47;;;;;;;14.83;9.30;;;;;;;-141.97;100.00;47690.16;4996036;28;20195;-84
2023/05/28 04:52:13;;;;;;;17.20;9.63;;;;;;;-141.97;100.00;47592.13;4995842;28;20218;-84
2023/05/28 04:54:38;;;;;;;13.07;9.33;;;;;;;-141.97;100.00;47699.75;4978644;28;20176;-84
2023/05/28 04:57:04;;;;;;;13.50;9.73;;;;;;;-141.97;100.00;47680.53;4996520;28;20254;-85
2023/05/28 04:59:30;;;;;;;14.90;9.87;;;;;;;-141.97;100.00;47674.78;4996296;28;20156;-84
2023/05/28 05:01:55;;;;;;;14.17;9.73;;;;;;;-141.97;100.00;47718.97;4996266;28;20217;-84
2023/05/28 05:04:21;;;;;;;13.80;10.00;;;;;;;-141.97;100.00;47707.44;4978323;28;20264;-85
2023/05/28 05:06:46;;;;;;;14.80;10.07;;;;;;;-141.97;100.00;47705.53;4978466;28;20175;-84
2023/05/28 05:09:12;;;;;;;12.70;9.23;;;;;;;-141.97;100.00;47613.25;4994592;28;20198;-84
2023/05/28 05:11:37;;;;;;;15.10;9.40;;;;;;;-141.97;100.00;47542.16;4995403;28;20211;-83
2023/05/28 05:14:03;;;;;;;14.37;9.97;;;;;;;-141.97;100.00;47715.13;4996001;28;20163;-84
2023/05/28 05:16:29;;;;;;;16.33;9.97;;;;;;;-141.97;100.00;47726.66;4996059;28;20179;-87
2023/05/28 05:18:54;;;;;;;15.47;10.20;;;;;;;-141.97;100.00;47845.84;4995706;28;20246;-85
2023/05/28 05:21:20;;;;;;;12.20;9.50;;;;;;;-141.97;100.00;47663.22;4995674;28;20167;-84
2023/05/28 05:23:45;;;;;;;15.00;9.47;;;;;;;-141.97;100.00;47695.91;4996141;28;20187;-85
2023/05/28 05:26:16;;;;;;;14.43;9.80;;;;;;;-141.97;100.00;47859.28;4995586;28;20258;-83
2023/05/28 05:28:42;;;;;;;14.53;9.87;;;;;;;-141.97;100.00;47699.75;4995159;28;20282;-86
2023/05/28 05:31:08;;;;;;;14.27;9.67;;;;;;;-141.97;100.00;47718.97;4996060;28;20187;-84
2023/05/28 05:33:33;;;;;;;16.17;9.40;;;;;;;-141.97;100.00;47695.91;4995673;28;20606;-85
2023/05/28 05:35:58;;;;;;;12.43;9.33;;;;;;;-141.97;100.00;47690.16;4995201;28;20287;-84
2023/05/28 05:38:24;;;;;;;13.37;9.50;;;;;;;-141.97;100.00;47651.69;4995578;28;20246;-85
2023/05/28 05:40:50;;;;;;;12.10;9.30;;;;;;;-141.97;100.00;47751.66;4977105;28;20186;-84
2023/05/28 05:43:15;;;;;;;11.70;9.00;;;;;;;-141.97;100.00;47580.59;4994862;28;20575;-85
2023/05/28 05:45:41;;;;;;;12.83;9.37;;;;;;;-141.97;100.00;47751.66;4994351;28;20198;-85
2023/05/28 05:48:06;;;;;;;13.90;9.13;;;;;;;-141.97;100.00;47632.47;4994884;28;20198;-83
2023/05/28 05:50:31;;;;;;;13.00;9.00;;;;;;;-141.97;100.00;47682.47;4977634;28;20229;-84
2023/05/28 05:52:59;;;;;;;13.03;8.80;;;;;;;-141.97;100.00;47728.59;4994858;28;20627;-84
2023/05/28 05:55:24;;;;;;;12.80;8.73;;;;;;;-141.97;100.00;47657.47;4995096;28;20218;-84
2023/05/28 05:57:50;;;;;;;13.40;9.00;;;;;;;-141.97;100.00;47559.44;4995492;28;20155;-85
2023/05/28 06:00:15;;;;;;;13.17;9.37;;;;;;;-141.97;100.00;47640.16;4977103;28;20613;-85
2023/05/28 06:02:42;;;;;;;12.70;9.57;;;;;;;-141.97;100.00;47711.28;4993502;28;20195;-84
2023/05/28 06:05:08;;;;;;;15.27;9.93;;;;;;;-141.97;100.00;47694.00;4994559;28;20647;-83
2023/05/28 06:07:33;;;;;;;14.53;9.60;;;;;;;-141.97;100.00;47724.75;4976823;28;20176;-84
2023/05/28 06:09:58;;;;;;;13.07;9.47;;;;;;;-141.97;100.00;47686.31;4995244;28;20195;-83
2023/05/28 06:12:24;;;;;;;13.73;9.50;;;;;;;-141.97;100.00;47670.91;4995562;28;20170;-85
2023/05/28 06:14:49;;;;;;;13.10;9.53;;;;;;;-141.97;100.00;47661.31;4997367;28;20546;-84
2023/05/28 06:17:15;;;;;;;15.10;9.60;;;;;;;-141.97;100.00;47615.19;4997686;28;20643;-84
2023/05/28 06:19:41;;;;;;;16.03;9.77;;;;;;;-141.97;100.00;47597.88;4997853;28;20646;-84
2023/05/28 06:22:07;;;;;;;14.33;9.70;;;;;;;-141.97;100.00;47707.44;4997617;28;20174;-85
2023/05/28 06:24:33;;;;;;;13.07;10.07;;;;;;;-141.97;100.00;47715.13;4995456;28;20167;-84
2023/05/28 06:26:58;;;;;;;13.03;9.27;;;;;;;-141.97;100.00;47707.44;4995911;28;20175;-83
2023/05/28 06:29:24;;;;;;;15.67;10.03;;;;;;;-141.97;100.00;47707.44;4996970;28;20203;-84
2023/05/28 06:31:50;;;;;;;15.80;10.30;;;;;;;-141.97;100.00;47682.47;4997998;28;20558;-83
2023/05/28 06:34:16;;;;;;;15.90;10.23;;;;;;;-141.97;100.00;47663.22;4997093;28;20171;-85
2023/05/28 06:36:41;;;;;;;15.80;9.63;;;;;;;-141.97;100.00;47678.63;4994737;28;20197;-83
2023/05/28 06:39:07;;;;;;;12.43;8.93;;;;;;;-141.97;100.00;47694.00;4995847;28;20167;-84
2023/05/28 06:41:32;;;;;;;15.37;8.73;;;;;;;-141.97;100.00;47659.38;4997335;28;20238;-84
2023/05/28 06:43:58;;;;;;;11.43;8.57;;;;;;;-141.97;100.00;47630.56;4998684;28;20211;-83
2023/05/28 06:46:23;;;;;;;13.17;8.00;;;;;;;-141.97;100.00;47638.25;4997881;28;20193;-84
2023/05/28 06:48:48;;;;;;;11.03;7.60;;;;;;;-141.97;100.00;47697.84;4997714;28;20233;-84
2023/05/28 06:51:14;;;;;;;11.17;7.77;;;;;;;-141.97;100.00;47718.97;5000920;28;20159;-83
2023/05/28 06:53:40;;;;;;;11.43;8.07;;;;;;;-141.97;100.00;47674.78;5013683;28;20163;-84
2023/05/28 06:56:06;;;;;;;11.57;7.93;;;;;;;-141.97;100.00;47715.13;5013726;28;20606;-82
2023/05/28 06:58:31;;;;;;;9.80;7.27;;;;;;;-141.97;100.00;47697.84;5013213;28;20169;-83
2023/05/28 07:01:01;;;;;;;13.03;7.83;;;;;;;-141.97;100.00;47705.53;4955919;28;20235;-83
2023/05/28 07:03:27;;;;;;;11.93;7.60;;;;;;;-141.97;100.00;47697.84;4990917;28;20554;-83
2023/05/28 07:05:52;;;;;;;10.70;7.40;;;;;;;-141.97;100.00;47634.41;4982864;28;20671;-84
2023/05/28 07:08:17;;;;;;;9.80;7.43;;;;;;;-141.97;100.00;47684.38;4986361;28;20322;-83
2023/05/28 07:10:43;;;;;;;11.47;7.00;;;;;;;-141.97;100.00;47661.31;5013046;28;20201;-84
2023/05/28 07:13:08;;;;;;;10.17;6.93;;;;;;;-141.97;100.00;47703.59;5007684;28;20207;-83
2023/05/28 07:15:34;;;;;;;10.73;6.70;;;;;;;-141.97;100.00;47703.59;4995786;28;20163;-83
2023/05/28 07:18:01;;;;;;;10.73;7.00;;;;;;;-141.97;100.00;47684.38;4976113;28;20556;-83
2023/05/28 07:20:26;;;;;;;8.07;6.53;;;;;;;-141.97;100.00;47713.22;4985526;28;20175;-84
2023/05/28 07:22:51;;;;;;;10.00;6.93;;;;;;;-141.97;100.00;47661.31;4976954;28;20519;-83
2023/05/28 07:25:17;;;;;;;8.63;6.30;;;;;;;-141.97;100.00;47659.38;4974888;28;20720;-82
2023/05/28 07:27:42;;;;;;;10.97;7.07;;;;;;;-141.97;100.00;47684.38;4972591;28;20196;-83
2023/05/28 07:30:08;;;;;;;9.87;6.53;;;;;;;-141.97;100.00;47684.38;4973742;28;20168;-83
2023/05/28 07:32:33;;;;;;;9.93;6.90;;;;;;;-141.97;100.00;47682.47;4974016;28;20203;-84
2023/05/28 07:34:59;;;;;;;9.93;6.73;;;;;;;-141.97;100.00;47699.75;4977516;28;20225;-83
2023/05/28 07:37:25;;;;;;;10.43;6.57;;;;;;;-141.97;100.00;47903.50;4976145;28;20175;-83
2023/05/28 07:39:50;;;;;;;10.37;6.13;;;;;;;-141.97;100.00;47715.13;4975851;28;20254;-83
2023/05/28 07:42:16;;;;;;;10.67;6.67;;;;;;;-141.97;100.00;47692.06;4987188;28;20359;-83
2023/05/28 07:44:41;;;;;;;8.53;5.93;;;;;;;-141.97;100.00;47711.28;4998181;28;20178;-84
2023/05/28 07:47:06;;;;;;;8.83;6.13;;;;;;;-141.97;100.00;47617.09;4997292;28;20760;-83
2023/05/28 07:49:32;;;;;;;9.20;6.30;;;;;;;-141.97;100.00;47642.09;4995284;28;20210;-83
2023/05/28 07:51:57;;;;;;;9.77;6.57;;;;;;;-141.97;100.00;47724.75;4995313;28;20269;-83
2023/05/28 07:54:23;;;;;;;8.07;6.10;;;;;;;-141.97;100.00;47692.06;4993929;28;20233;-84
2023/05/28 07:56:48;;;;;;;10.47;6.63;;;;;;;-141.97;100.00;47669.00;5006389;28;20214;-83
2023/05/28 07:59:14;;;;;;;10.57;6.33;;;;;;;-141.97;100.00;47669.00;5015749;28;20198;-84
2023/05/28 08:01:40;;;;;;;9.03;6.17;;;;;;;-141.97;100.00;47718.97;5015846;28;20299;-83
2023/05/28 08:04:05;;;;;;;8.87;6.10;;;;;;;-141.97;100.00;47718.97;4995101;28;20234;-83
2023/05/28 08:06:32;;;;;;;9.37;5.77;;;;;;;-141.97;100.00;47678.63;4996865;28;20167;-83
2023/05/28 08:08:58;;;;;;;8.43;5.90;;;;;;;-141.97;100.00;47686.31;4996929;28;20202;-82
2023/05/28 08:11:24;;;;;;;8.07;6.07;;;;;;;-141.97;100.00;47709.38;4997358;28;20163;-84
2023/05/28 08:13:49;;;;;;;8.47;5.90;;;;;;;-141.97;100.00;47686.31;4996835;28;20191;-83
2023/05/28 08:16:14;;;;;;;7.77;5.13;;;;;;;-141.97;100.00;47626.72;4997183;28;20163;-84
2023/05/28 08:18:40;;;;;;;7.33;5.07;;;;;;;-141.97;100.00;47678.63;4995276;28;20683;-83
2023/05/28 08:21:07;;;;;;;9.80;5.10;;;;;;;-141.97;100.00;47680.53;4996635;28;20160;-83
2023/05/28 08:23:34;;;;;;;6.57;4.70;;;;;;;-141.97;100.00;47672.84;4995981;28;20278;-83
2023/05/28 08:26:03;;;;;;;7.20;4.77;;;;;;;-141.97;100.00;47601.72;4996426;28;20175;-84
2023/05/28 08:28:29;;;;;;;14.40;4.77;;;;;;;-141.97;100.00;47692.06;4996210;28;20203;-83
2023/05/28 08:30:55;;;;;;;6.53;4.83;;;;;;;-141.97;100.00;47653.63;4995205;28;20175;-83
2023/05/28 08:33:21;;;;;;;5.73;4.20;;;;;;;-141.97;100.00;47811.25;4995150;28;20181;-83
2023/05/28 08:35:46;;;;;;;8.20;4.90;;;;;;;-141.97;100.00;47670.91;4996576;28;20170;-84
2023/05/28 08:38:11;;;;;;;8.43;4.77;;;;;;;-141.97;100.00;47676.69;4996271;28;20175;-82
2023/05/28 08:40:40;;;;;;;6.50;4.73;;;;;;;-141.97;100.00;47651.69;4995933;28;20163;-83
2023/05/28 08:43:06;;;;;;;6.30;4.70;;;;;;;-141.97;100.00;47688.22;4984737;28;20230;-83
2023/05/28 08:45:32;;;;;;;7.17;4.57;;;;;;;-141.97;100.00;47684.38;4976833;28;20168;-82
2023/05/28 08:47:59;;;;;;;6.07;4.60;;;;;;;-141.97;100.00;47826.63;4974748;28;20200;-82
2023/05/28 08:50:26;;;;;;;6.83;4.17;;;;;;;-141.97;100.00;47667.06;4977673;28;20200;-82
2023/05/28 08:52:52;;;;;;;5.47;3.73;;;;;;;-141.97;100.00;47642.09;4980551;28;20171;-84
2023/05/28 08:55:17;;;;;;;4.80;3.70;;;;;;;-141.97;100.00;47630.56;4977116;28;20259;-83
2023/05/28 08:57:45;;;;;;;5.27;3.80;;;;;;;-141.97;100.00;47634.41;5010160;28;20170;-83
2023/05/28 09:00:11;;;;;;;5.33;3.47;;;;;;;-141.97;100.00;47640.16;5014773;28;20244;-83
2023/05/28 09:02:39;;;;;;;6.30;4.00;;;;;;;-141.97;100.00;47651.69;5008250;28;20175;-83
2023/05/28 09:05:05;;;;;;;7.80;4.27;;;;;;;-141.97;100.00;47747.81;4967047;28;20246;-80
2023/05/28 09:07:32;;;;;;;6.93;4.30;;;;;;;-141.97;100.00;47645.94;4978244;28;20167;-83
2023/05/28 09:09:58;;;;;;;5.40;3.97;;;;;;;-141.97;100.00;47588.28;4977393;28;20176;-82
2023/05/28 09:12:23;;;;;;;5.03;4.00;;;;;;;-141.97;100.00;47634.41;4995307;28;20179;-83
2023/05/28 09:14:52;;;;;;;5.80;3.97;;;;;;;-141.97;100.00;47653.63;4995785;28;20162;-84
2023/05/28 09:17:31;;;;;;;7.53;5.10;;;;;;;-141.97;100.00;47638.25;4995186;28;20163;-83
2023/05/28 09:19:59;;;;;;;6.57;4.20;;;;;;;-141.97;100.00;47663.22;4996817;28;20628;-84
2023/05/28 09:22:26;;;;;;;8.40;6.53;;;;;;;-141.97;100.00;47615.19;4995079;28;20538;-84
2023/05/28 09:24:52;;;;;;;6.07;4.30;;;;;;;-141.97;100.00;47659.38;4997239;28;20168;-83
2023/05/28 09:27:19;;;;;;;7.60;4.57;;;;;;;-141.97;100.00;47651.69;4978924;28;20323;-83
2023/05/28 09:29:46;;;;;;;6.07;3.57;;;;;;;-141.97;100.00;47634.41;4997147;28;20199;-84
2023/05/28 09:32:16;;;;;;;7.43;4.10;;;;;;;-141.97;100.00;47630.56;4995030;28;20627;-84
2023/05/28 09:34:42;;;;;;;5.80;3.33;;;;;;;-141.97;98.92;47609.41;4978739;28;20273;-83
2023/05/28 09:37:08;;;;;;;4.67;3.40;;;;;;;-141.97;95.35;47661.31;4996200;28;20628;-83
2023/05/28 09:39:33;;;;;;;5.80;3.80;;;;;;;-141.97;96.46;47630.56;4998351;28;20270;-83
2023/05/28 09:42:20;;;;;;;5.87;4.37;;;;;;;-141.97;95.16;47620.94;4998345;28;20246;-82
2023/05/28 09:44:45;;;;;;;5.23;3.60;;;;;;;-141.97;91.49;47638.25;4998098;28;20191;-83
2023/05/28 09:47:14;;;;;;;4.00;3.40;;;;;;;-141.97;86.52;47628.63;4999992;28;20234;-82
2023/05/28 09:49:45;;;;;;;7.90;4.30;;;;;;;-141.97;84.99;47538.28;4999307;28;20313;-83
2023/05/28 09:52:20;;;;;;;6.20;3.97;;;;;;;-141.97;84.16;47590.19;4996664;28;20797;-83
2023/05/28 09:54:51;;;;;;;4.77;3.47;;;;;;;-141.97;87.09;47628.63;4977774;28;20556;-83
2023/05/28 09:57:21;;;;;;;5.87;4.87;;;;;;;-141.97;90.39;47613.25;5004978;28;20178;-82
2023/05/28 09:59:53;;;;;;;8.33;6.07;;;;;;;-141.97;89.29;47613.25;5016672;28;20154;-82
2023/05/28 10:02:38;;;;;;;6.97;4.07;;;;;;;-141.97;91.73;47601.72;5015273;28;20569;-82
2023/05/28 10:05:07;;;;;;;5.10;3.90;;;;;;;-141.97;82.86;47599.81;5000059;28;20243;-84
2023/05/28 10:07:33;;;;;;;4.87;3.40;;;;;;;-141.97;81.24;47634.41;5000236;28;20213;-83
2023/05/28 10:10:01;;;;;;;4.80;3.87;;;;;;;-141.97;77.43;47615.19;4980241;28;20171;-83
2023/05/28 10:12:30;;;;;;;6.07;4.10;;;;;;;-141.97;71.91;47642.09;4995432;28;20241;-83
2023/05/28 10:14:55;;;;;;;7.37;4.10;;;;;;;-141.97;73.07;47628.63;4996859;28;20159;-83
2023/05/28 10:17:21;;;;;;;5.23;3.80;;;;;;;-141.97;71.75;47640.16;4995958;28;20199;-83
2023/05/28 10:19:47;;;;;;;8.13;5.93;;;;;;;-141.97;69.59;47770.88;4993922;28;20168;-82
2023/05/28 10:22:14;;;;;;;5.57;3.90;;;;;;;-141.97;67.91;47619.03;4984256;28;20611;-81
2023/05/28 10:24:40;;;;;;;6.83;4.63;;;;;;;-141.97;66.71;47570.97;4975214;28;20215;-83
2023/05/28 10:27:06;;;;;;;4.73;4.10;;;;;;;-141.97;65.47;47642.09;4974730;28;20189;-84
2023/05/28 10:29:48;;;;;;;6.47;4.63;;;;;;;-141.97;69.77;47634.41;4976633;28;20184;-83
2023/05/28 10:32:17;;;;;;;5.67;3.70;;;;;;;-141.97;71.06;47599.81;4974811;28;20818;-82
2023/05/28 10:34:43;;;;;;;6.40;4.60;;;;;;;-141.97;71.47;47574.81;4973953;28;20182;-82
2023/05/28 10:37:10;;;;;;;6.07;4.40;;;;;;;-141.97;74.67;47655.53;4974653;28;20247;-84
2023/05/28 10:39:38;;;;;;;5.37;4.00;;;;;;;-141.97;72.28;47649.78;4975686;28;20171;-83
2023/05/28 10:42:06;;;;;;;6.13;4.17;;;;;;;-141.97;73.57;47653.63;4985404;28;20227;-82
2023/05/28 10:44:50;;;;;;;6.90;4.60;;;;;;;-141.97;71.93;47619.03;4993855;28;20561;-83
2023/05/28 10:47:19;;;;;;;10.77;4.30;;;;;;;-141.97;78.03;47665.16;4995347;28;20194;-83
2023/05/28 10:50:17;;;;;;;11.23;7.93;;;;;;;-141.97;82.17;47597.88;4998827;28;20668;-83
2023/05/28 10:52:42;;;;;;;10.03;7.40;;;;;;;-141.97;88.52;47603.66;4996758;28;20193;-84
2023/05/28 10:55:10;;;;;;;8.97;6.50;;;;;;;-141.97;88.48;47651.69;4994918;28;20194;-83
2023/05/28 10:57:45;;;;;;;8.13;4.97;;;;;;;-141.97;85.10;47659.38;5011217;28;20233;-83
2023/05/28 11:00:15;;;;;;;5.93;5.00;;;;;;;-141.97;84.26;47647.84;4997316;28;20173;-84
2023/05/28 11:02:47;;;;;;;6.53;4.57;;;;;;;-141.97;82.66;47649.78;4986557;28;20235;-84
2023/05/28 11:05:12;;;;;;;6.60;3.97;;;;;;;-141.97;83.94;47740.13;4994153;28;20166;-84